createdAt,value
2019-04-29T00:00:58.453Z,3.50
2019-04-29T00:01:58.441Z,2.90
2019-04-29T00:02:58.475Z,3.30
2019-04-29T00:03:58.408Z,5.20
2019-04-29T00:04:58.401Z,3.40
2019-04-29T00:05:58.405Z,3.00
2019-04-29T00:06:58.401Z,3.00
2019-04-29T00:07:58.376Z,3.30
2019-04-29T00:08:58.381Z,3.50
2019-04-29T00:09:58.365Z,4.30
2019-04-29T00:10:58.341Z,3.60
2019-04-29T00:11:58.350Z,4.80
2019-04-29T00:12:58.350Z,3.00
2019-04-29T00:13:58.316Z,3.40
2019-04-29T00:14:58.310Z,2.90
2019-04-29T00:15:58.286Z,5.10
2019-04-29T00:16:58.278Z,3.10
2019-04-29T00:17:58.290Z,4.50
2019-04-29T00:18:58.248Z,5.50
2019-04-29T00:19:58.253Z,4.30
2019-04-29T00:20:58.244Z,5.30
2019-04-29T00:21:58.225Z,4.80
2019-04-29T00:22:58.215Z,5.60
2019-04-29T00:24:04.056Z,4.50
2019-04-29T00:24:59.199Z,3.50
2019-04-29T00:25:58.185Z,4.70
2019-04-29T00:26:58.162Z,4.80
2019-04-29T00:27:58.155Z,3.80
2019-04-29T00:28:58.235Z,4.50
2019-04-29T00:29:58.169Z,3.80
2019-04-29T00:30:58.115Z,4.20
2019-04-29T00:31:58.110Z,3.90
2019-04-29T00:32:58.104Z,5.60
2019-04-29T00:33:58.090Z,5.00
2019-04-29T00:34:58.073Z,3.80
2019-04-29T00:35:58.089Z,3.70
2019-04-29T00:36:58.085Z,4.60
2019-04-29T00:37:58.064Z,3.80
2019-04-29T00:38:58.039Z,3.70
2019-04-29T00:39:58.014Z,6.20
2019-04-29T00:40:58.010Z,5.20
2019-04-29T00:41:58.021Z,7.30
2019-04-29T00:42:57.995Z,4.60
2019-04-29T00:43:57.999Z,4.30
2019-04-29T00:44:57.974Z,5.50
2019-04-29T00:45:57.976Z,4.70
2019-04-29T00:46:57.974Z,4.70
2019-04-29T00:47:57.937Z,5.70
2019-04-29T00:48:57.948Z,7.40
2019-04-29T00:49:57.918Z,5.50
2019-04-29T00:50:57.891Z,4.30
2019-04-29T00:51:57.902Z,5.50
2019-04-29T00:52:57.883Z,5.50
2019-04-29T00:53:57.889Z,4.10
2019-04-29T00:54:57.863Z,5.50
2019-04-29T00:55:57.863Z,6.90
2019-04-29T00:56:57.842Z,5.80
2019-04-29T00:57:57.835Z,5.80
2019-04-29T00:58:57.873Z,8.00
2019-04-29T00:59:57.805Z,7.30
2019-04-29T01:00:57.788Z,8.10
2019-04-29T01:01:57.773Z,6.80
2019-04-29T01:02:57.786Z,5.90
2019-04-29T01:03:57.776Z,6.00
2019-04-29T01:04:57.753Z,7.30
2019-04-29T01:05:57.743Z,6.00
2019-04-29T01:06:57.741Z,6.40
2019-04-29T01:07:57.709Z,8.00
2019-04-29T01:08:57.701Z,5.80
2019-04-29T01:09:57.735Z,6.80
2019-04-29T01:10:57.684Z,5.60
2019-04-29T01:11:57.671Z,5.10
2019-04-29T01:12:57.657Z,7.30
2019-04-29T01:13:57.644Z,6.30
2019-04-29T01:14:57.646Z,5.80
2019-04-29T01:15:57.659Z,6.00
2019-04-29T01:16:57.623Z,6.70
2019-04-29T01:17:57.637Z,6.10
2019-04-29T01:18:57.614Z,6.50
2019-04-29T01:19:57.576Z,7.30
2019-04-29T01:20:57.573Z,5.90
2019-04-29T01:21:57.574Z,6.90
2019-04-29T01:22:57.556Z,6.90
2019-04-29T01:23:57.554Z,6.20
2019-04-29T01:24:57.544Z,8.00
2019-04-29T01:25:57.515Z,7.00
2019-04-29T01:26:57.530Z,7.60
2019-04-29T01:27:57.510Z,6.50
2019-04-29T01:28:57.491Z,7.10
2019-04-29T01:29:57.495Z,6.30
2019-04-29T01:30:57.486Z,8.00
2019-04-29T01:31:57.460Z,5.90
2019-04-29T01:32:57.438Z,5.90
2019-04-29T01:33:57.427Z,6.00
2019-04-29T01:34:57.418Z,9.20
2019-04-29T01:35:57.412Z,8.50
2019-04-29T01:36:57.419Z,7.30
2019-04-29T01:37:57.392Z,6.80
2019-04-29T01:38:57.412Z,8.70
2019-04-29T01:39:57.358Z,6.30
2019-04-29T01:40:57.351Z,7.50
2019-04-29T01:41:57.355Z,7.90
2019-04-29T01:42:57.350Z,9.30
2019-04-29T01:43:57.314Z,7.20
2019-04-29T01:44:57.319Z,7.20
2019-04-29T01:45:57.294Z,6.60
2019-04-29T01:46:57.291Z,6.90
2019-04-29T01:47:57.295Z,9.10
2019-04-29T01:48:57.292Z,8.90
2019-04-29T01:49:57.255Z,8.40
2019-04-29T01:50:57.242Z,8.60
2019-04-29T01:51:57.228Z,7.70
2019-04-29T01:52:57.234Z,10.20
2019-04-29T01:53:57.209Z,8.50
2019-04-29T01:54:57.198Z,10.30
2019-04-29T01:55:57.215Z,8.60
2019-04-29T01:56:57.189Z,8.50
2019-04-29T01:57:57.189Z,10.30
2019-04-29T01:58:57.157Z,10.40
2019-04-29T01:59:57.150Z,9.70
2019-04-29T02:00:57.148Z,9.00
2019-04-29T02:01:57.130Z,9.20
2019-04-29T02:02:57.137Z,10.20
2019-04-29T02:03:57.108Z,9.30
2019-04-29T02:04:57.103Z,7.70
2019-04-29T02:05:57.088Z,8.70
2019-04-29T02:06:57.067Z,12.30
2019-04-29T02:07:57.060Z,11.20
2019-04-29T02:08:57.074Z,10.50
2019-04-29T02:09:57.061Z,10.30
2019-04-29T02:10:57.032Z,11.60
2019-04-29T02:11:57.012Z,9.30
2019-04-29T02:12:57.021Z,9.30
2019-04-29T02:13:56.999Z,10.30
2019-04-29T02:14:56.989Z,10.30
2019-04-29T02:15:56.974Z,8.60
2019-04-29T02:16:56.955Z,10.50
2019-04-29T02:17:56.962Z,11.60
2019-04-29T02:18:56.938Z,9.40
2019-04-29T02:19:56.939Z,9.70
2019-04-29T02:20:56.917Z,12.20
2019-04-29T02:21:56.918Z,11.00
2019-04-29T02:22:56.929Z,10.90
2019-04-29T02:23:56.871Z,10.80
2019-04-29T02:24:56.871Z,10.70
2019-04-29T02:25:56.878Z,10.60
2019-04-29T02:26:56.839Z,10.60
2019-04-29T02:27:56.853Z,11.00
2019-04-29T02:28:56.883Z,11.90
2019-04-29T02:29:56.814Z,10.60
2019-04-29T02:30:56.800Z,10.90
2019-04-29T02:31:56.791Z,13.10
2019-04-29T02:32:56.816Z,12.90
2019-04-29T02:33:56.782Z,10.40
2019-04-29T02:34:56.788Z,12.20
2019-04-29T02:35:56.751Z,11.30
2019-04-29T02:36:56.756Z,9.80
2019-04-29T02:37:56.738Z,11.20
2019-04-29T02:38:56.735Z,11.00
2019-04-29T02:39:56.708Z,12.00
2019-04-29T02:40:56.701Z,10.20
2019-04-29T02:41:56.695Z,12.30
2019-04-29T02:42:56.679Z,11.70
2019-04-29T02:43:56.679Z,9.60
2019-04-29T02:44:56.664Z,10.00
2019-04-29T02:45:56.660Z,12.30
2019-04-29T02:46:56.626Z,12.90
2019-04-29T02:47:56.648Z,12.70
2019-04-29T02:48:56.627Z,10.60
2019-04-29T02:49:56.593Z,11.80
2019-04-29T02:50:56.581Z,11.10
2019-04-29T02:51:56.578Z,10.50
2019-04-29T02:52:56.568Z,11.20
2019-04-29T02:53:56.574Z,11.30
2019-04-29T02:54:56.537Z,10.10
2019-04-29T02:55:56.528Z,10.50
2019-04-29T02:56:56.514Z,10.60
2019-04-29T02:57:56.508Z,12.40
2019-04-29T02:58:56.515Z,11.10
2019-04-29T02:59:56.494Z,12.40
2019-04-29T03:00:56.481Z,12.90
2019-04-29T03:01:56.460Z,11.40
2019-04-29T03:02:56.454Z,14.10
2019-04-29T03:03:56.481Z,13.80
2019-04-29T03:04:56.439Z,12.90
2019-04-29T03:05:56.440Z,14.30
2019-04-29T03:06:56.423Z,12.60
2019-04-29T03:07:56.394Z,13.30
2019-04-29T03:08:56.404Z,14.00
2019-04-29T03:09:56.387Z,14.30
2019-04-29T03:10:56.416Z,15.50
2019-04-29T03:11:56.375Z,16.10
2019-04-29T03:12:56.353Z,14.40
2019-04-29T03:13:56.342Z,15.30
2019-04-29T03:14:56.345Z,14.20
2019-04-29T03:15:56.313Z,16.40
2019-04-29T03:16:56.317Z,16.40
2019-04-29T03:17:56.295Z,15.40
2019-04-29T03:18:56.284Z,16.00
2019-04-29T03:19:56.283Z,15.30
2019-04-29T03:20:56.250Z,15.60
2019-04-29T03:21:56.266Z,18.20
2019-04-29T03:22:56.226Z,18.30
2019-04-29T03:23:56.235Z,17.70
2019-04-29T03:24:56.249Z,16.90
2019-04-29T03:25:56.210Z,16.80
2019-04-29T03:26:56.194Z,18.60
2019-04-29T03:27:56.169Z,16.90
2019-04-29T03:28:56.157Z,17.60
2019-04-29T03:29:56.171Z,20.50
2019-04-29T03:30:56.131Z,18.00
2019-04-29T03:31:56.255Z,20.00
2019-04-29T03:32:56.122Z,17.50
2019-04-29T03:33:56.110Z,18.40
2019-04-29T03:34:56.132Z,18.50
2019-04-29T03:35:56.101Z,17.60
2019-04-29T03:36:56.097Z,18.00
2019-04-29T03:37:56.069Z,19.00
2019-04-29T03:38:56.065Z,18.90
2019-04-29T03:39:56.067Z,19.30
2019-04-29T03:40:56.033Z,17.10
2019-04-29T03:41:56.017Z,20.70
2019-04-29T03:42:56.066Z,19.10
2019-04-29T03:43:56.002Z,17.80
2019-04-29T03:44:56.171Z,20.10
2019-04-29T03:45:56.004Z,17.50
2019-04-29T03:46:55.972Z,19.00
2019-04-29T03:47:55.955Z,17.60
2019-04-29T03:48:55.946Z,19.30
2019-04-29T03:49:55.940Z,20.70
2019-04-29T03:50:55.945Z,20.20
2019-04-29T03:51:56.009Z,18.70
2019-04-29T03:52:55.908Z,19.20
2019-04-29T03:53:55.892Z,17.80
2019-04-29T03:54:55.889Z,18.30
2019-04-29T03:55:55.901Z,20.70
2019-04-29T03:56:55.857Z,20.00
2019-04-29T03:57:55.856Z,19.60
2019-04-29T03:58:55.892Z,22.40
2019-04-29T03:59:57.095Z,20.50
2019-04-29T04:00:55.812Z,19.10
2019-04-29T04:01:55.811Z,19.80
2019-04-29T04:02:55.786Z,24.80
2019-04-29T04:03:55.783Z,23.80
2019-04-29T04:04:55.808Z,22.60
2019-04-29T04:05:55.753Z,22.40
2019-04-29T04:06:55.744Z,23.20
2019-04-29T04:07:55.748Z,23.90
2019-04-29T04:09:05.592Z,24.40
2019-04-29T04:09:57.199Z,24.20
2019-04-29T04:10:55.722Z,23.40
2019-04-29T04:11:55.685Z,24.40
2019-04-29T04:12:55.673Z,22.80
2019-04-29T04:13:55.669Z,25.00
2019-04-29T04:14:55.650Z,24.20
2019-04-29T04:15:56.070Z,25.90
2019-04-29T04:16:55.643Z,23.50
2019-04-29T04:17:55.643Z,24.70
2019-04-29T04:18:55.622Z,28.10
2019-04-29T04:19:55.611Z,21.70
2019-04-29T04:20:55.604Z,26.50
2019-04-29T04:21:55.604Z,25.50
2019-04-29T04:22:55.576Z,25.70
2019-04-29T04:23:58.182Z,24.40
2019-04-29T04:24:55.552Z,22.20
2019-04-29T04:25:55.565Z,22.40
2019-04-29T04:26:55.528Z,24.80
2019-04-29T04:27:55.518Z,23.40
2019-04-29T04:28:55.512Z,24.80
2019-04-29T04:29:55.498Z,24.90
2019-04-29T04:30:55.491Z,23.70
2019-04-29T04:31:55.503Z,23.90
2019-04-29T04:32:55.454Z,23.10
2019-04-29T04:33:55.465Z,24.30
2019-04-29T04:34:55.440Z,21.60
2019-04-29T04:35:55.443Z,22.50
2019-04-29T04:36:55.448Z,20.20
2019-04-29T04:37:55.402Z,21.30
2019-04-29T04:38:55.386Z,22.30
2019-04-29T04:39:55.391Z,22.50
2019-04-29T04:40:55.378Z,24.30
2019-04-29T04:41:55.386Z,21.10
2019-04-29T04:42:55.365Z,21.40
2019-04-29T04:43:55.356Z,23.10
2019-04-29T04:44:55.338Z,23.20
2019-04-29T04:45:55.322Z,19.70
2019-04-29T04:46:55.324Z,20.00
2019-04-29T04:47:55.304Z,21.70
2019-04-29T04:48:55.304Z,21.50
2019-04-29T04:49:55.291Z,21.10
2019-04-29T04:50:55.266Z,19.80
2019-04-29T04:51:55.257Z,20.40
2019-04-29T04:52:55.253Z,21.40
2019-04-29T04:53:55.244Z,19.70
2019-04-29T04:54:55.225Z,21.90
2019-04-29T04:55:55.218Z,21.20
2019-04-29T04:56:55.217Z,19.80
2019-04-29T04:57:55.186Z,19.50
2019-04-29T04:58:55.177Z,20.20
2019-04-29T04:59:55.164Z,20.00
2019-04-29T05:00:55.157Z,18.60
2019-04-29T05:01:55.168Z,21.10
2019-04-29T05:02:55.213Z,21.10
2019-04-29T05:03:55.119Z,19.80
2019-04-29T05:04:55.127Z,18.50
2019-04-29T05:05:55.103Z,18.20
2019-04-29T05:06:55.100Z,18.80
2019-04-29T05:07:55.073Z,19.20
2019-04-29T05:08:55.089Z,20.20
2019-04-29T05:09:55.059Z,17.90
2019-04-29T05:10:55.041Z,17.40
2019-04-29T05:11:55.052Z,19.10
2019-04-29T05:12:55.027Z,18.10
2019-04-29T05:13:55.026Z,20.70
2019-04-29T05:14:55.006Z,20.00
2019-04-29T05:15:54.985Z,20.70
2019-04-29T05:16:54.998Z,22.30
2019-04-29T05:17:54.966Z,18.90
2019-04-29T05:18:54.945Z,18.60
2019-04-29T05:19:54.945Z,17.60
2019-04-29T05:20:54.958Z,18.40
2019-04-29T05:21:54.945Z,16.70
2019-04-29T05:22:54.911Z,19.70
2019-04-29T05:23:54.919Z,18.70
2019-04-29T05:24:54.889Z,21.40
2019-04-29T05:25:54.879Z,18.10
2019-04-29T05:26:54.901Z,18.00
2019-04-29T05:27:54.867Z,21.30
2019-04-29T05:28:54.844Z,20.40
2019-04-29T05:29:54.828Z,22.20
2019-04-29T05:30:54.814Z,19.00
2019-04-29T05:31:54.838Z,19.90
2019-04-29T05:32:54.813Z,18.60
2019-04-29T05:33:54.794Z,18.70
2019-04-29T05:34:55.140Z,20.50
2019-04-29T05:35:56.888Z,19.00
2019-04-29T05:36:55.776Z,20.10
2019-04-29T05:37:56.795Z,18.30
2019-04-29T05:38:54.729Z,21.80
2019-04-29T05:39:54.728Z,19.30
2019-04-29T05:40:56.859Z,19.10
2019-04-29T05:41:54.720Z,17.80
2019-04-29T05:42:54.724Z,20.60
2019-04-29T05:43:54.685Z,18.80
2019-04-29T05:44:54.686Z,18.90
2019-04-29T05:45:54.664Z,19.60
2019-04-29T05:46:54.674Z,21.40
2019-04-29T05:47:56.979Z,20.30
2019-04-29T05:48:54.621Z,21.40
2019-04-29T05:49:54.634Z,19.20
2019-04-29T05:50:54.621Z,19.20
2019-04-29T05:51:57.609Z,20.10
2019-04-29T05:52:55.586Z,17.00
2019-04-29T05:53:55.852Z,18.90
2019-04-29T05:54:54.564Z,19.80
2019-04-29T05:55:54.548Z,18.10
2019-04-29T05:56:54.552Z,19.10
2019-04-29T05:57:55.854Z,18.90
2019-04-29T05:58:55.519Z,18.80
2019-04-29T05:59:54.504Z,19.00
2019-04-29T06:00:54.487Z,17.30
2019-04-29T06:01:54.508Z,17.40
2019-04-29T06:02:54.470Z,17.20
2019-04-29T06:03:54.462Z,19.00
2019-04-29T06:04:54.467Z,17.70
2019-04-29T06:05:54.444Z,20.10
2019-04-29T06:06:54.433Z,22.00
2019-04-29T06:07:56.210Z,16.40
2019-04-29T06:08:55.409Z,18.90
2019-04-29T06:09:54.395Z,19.60
2019-04-29T06:10:54.381Z,19.50
2019-04-29T06:11:54.376Z,15.80
2019-04-29T06:12:54.387Z,15.40
2019-04-29T06:13:54.347Z,19.30
2019-04-29T06:14:54.334Z,17.80
2019-04-29T06:15:54.411Z,14.80
2019-04-29T06:16:57.596Z,20.30
2019-04-29T06:17:55.335Z,16.80
2019-04-29T06:18:59.786Z,14.80
2019-04-29T06:19:55.281Z,15.60
2019-04-29T06:21:07.889Z,17.10
2019-04-29T06:21:55.259Z,16.00
2019-04-29T06:22:54.270Z,16.50
2019-04-29T06:23:54.738Z,18.50
2019-04-29T06:24:54.239Z,18.60
2019-04-29T06:25:54.231Z,17.20
2019-04-29T06:26:54.216Z,19.00
2019-04-29T06:27:54.216Z,20.60
2019-04-29T06:28:54.187Z,19.70
2019-04-29T06:29:54.176Z,19.60
2019-04-29T06:30:54.186Z,16.80
2019-04-29T06:31:54.166Z,17.90
2019-04-29T06:32:54.177Z,19.10
2019-04-29T06:33:54.123Z,18.40
2019-04-29T06:34:54.116Z,16.70
2019-04-29T06:35:56.928Z,17.80
2019-04-29T06:36:54.099Z,20.80
2019-04-29T06:37:54.115Z,17.40
2019-04-29T06:38:54.080Z,17.60
2019-04-29T06:39:54.058Z,16.50
2019-04-29T06:40:54.051Z,17.20
2019-04-29T06:41:54.056Z,16.70
2019-04-29T06:42:55.203Z,17.70
2019-04-29T06:43:56.060Z,16.30
2019-04-29T06:44:54.000Z,15.70
2019-04-29T06:45:53.994Z,17.80
2019-04-29T06:46:54.574Z,16.10
2019-04-29T06:47:53.997Z,19.50
2019-04-29T06:48:53.974Z,11.10
2019-04-29T06:49:53.951Z,13.80
2019-04-29T06:50:53.970Z,14.50
2019-04-29T06:51:53.938Z,16.90
2019-04-29T06:52:53.936Z,15.90
2019-04-29T06:53:53.901Z,15.50
2019-04-29T06:54:53.916Z,14.90
2019-04-29T06:55:53.893Z,17.20
2019-04-29T06:56:53.868Z,15.30
2019-04-29T06:57:53.882Z,14.00
2019-04-29T06:58:53.849Z,15.40
2019-04-29T06:59:54.905Z,18.70
2019-04-29T07:00:55.929Z,15.50
2019-04-29T07:01:54.833Z,17.80
2019-04-29T07:02:53.840Z,13.70
2019-04-29T07:03:55.735Z,17.10
2019-04-29T07:04:54.784Z,13.60
2019-04-29T07:05:53.774Z,14.70
2019-04-29T07:06:57.510Z,15.40
2019-04-29T07:07:53.767Z,13.50
2019-04-29T07:08:53.748Z,17.10
2019-04-29T07:09:56.706Z,15.60
2019-04-29T07:10:55.894Z,14.00
2019-04-29T07:12:01.131Z,13.40
2019-04-29T07:12:54.723Z,14.00
2019-04-29T07:13:57.695Z,12.60
2019-04-29T07:14:54.678Z,15.70
2019-04-29T07:15:53.673Z,12.30
2019-04-29T07:16:53.646Z,13.60
2019-04-29T07:17:53.665Z,13.70
2019-04-29T07:18:53.892Z,13.50
2019-04-29T07:19:57.447Z,11.80
2019-04-29T07:20:54.611Z,13.50
2019-04-29T07:21:56.458Z,15.30
2019-04-29T07:22:56.536Z,13.70
2019-04-29T07:23:54.585Z,12.80
2019-04-29T07:24:53.570Z,13.80
2019-04-29T07:25:53.554Z,14.90
2019-04-29T07:26:53.545Z,14.10
2019-04-29T07:27:53.533Z,11.60
2019-04-29T07:28:55.285Z,14.20
2019-04-29T07:29:53.509Z,9.10
2019-04-29T07:31:02.662Z,13.50
2019-04-29T07:31:54.489Z,11.90
2019-04-29T07:32:53.489Z,13.50
2019-04-29T07:33:57.548Z,14.60
2019-04-29T07:34:53.465Z,11.10
2019-04-29T07:35:53.451Z,11.80
2019-04-29T07:36:57.618Z,12.20
2019-04-29T07:37:54.418Z,10.50
2019-04-29T07:38:56.695Z,11.80
2019-04-29T07:39:53.394Z,15.30
2019-04-29T07:40:53.398Z,11.90
2019-04-29T07:41:53.740Z,11.30
2019-04-29T07:42:53.362Z,11.90
2019-04-29T07:43:53.382Z,11.30
2019-04-29T07:44:54.163Z,11.40
2019-04-29T07:45:53.340Z,20.70
2019-04-29T07:47:00.370Z,12.90
2019-04-29T07:47:56.704Z,10.70
2019-04-29T07:49:01.467Z,10.50
2019-04-29T07:49:54.303Z,10.00
2019-04-29T07:50:53.277Z,12.10
2019-04-29T07:51:53.270Z,9.80
2019-04-29T07:52:53.284Z,11.50
2019-04-29T07:53:53.273Z,10.50
2019-04-29T07:54:56.126Z,10.60
2019-04-29T07:55:53.232Z,10.40
2019-04-29T07:56:53.208Z,12.90
2019-04-29T07:57:53.277Z,10.50
2019-04-29T07:58:53.236Z,10.90
2019-04-29T07:59:53.187Z,9.80
2019-04-29T08:00:56.142Z,12.00
2019-04-29T08:01:55.591Z,10.50
2019-04-29T08:02:54.132Z,12.30
2019-04-29T08:03:53.134Z,15.80
2019-04-29T08:04:53.599Z,11.80
2019-04-29T08:05:53.116Z,15.10
2019-04-29T08:06:53.121Z,12.10
2019-04-29T08:07:53.094Z,16.80
2019-04-29T08:08:55.134Z,13.70
2019-04-29T08:09:53.107Z,13.70
2019-04-29T08:10:56.583Z,13.40
2019-04-29T08:11:53.047Z,16.30
2019-04-29T08:12:53.043Z,15.20
2019-04-29T08:13:53.102Z,17.70
2019-04-29T08:14:53.305Z,16.10
2019-04-29T08:15:53.023Z,17.60
2019-04-29T08:16:53.006Z,19.70
2019-04-29T08:18:05.945Z,17.00
2019-04-29T08:18:54.920Z,16.10
2019-04-29T08:19:53.006Z,15.00
2019-04-29T08:20:52.947Z,17.90
2019-04-29T08:21:52.941Z,17.90
2019-04-29T08:22:52.919Z,26.40
2019-04-29T08:23:52.939Z,21.10
2019-04-29T08:24:52.922Z,19.10
2019-04-29T08:25:57.311Z,19.80
2019-04-29T08:26:53.891Z,18.20
2019-04-29T08:27:52.876Z,16.40
2019-04-29T08:28:59.934Z,19.80
2019-04-29T08:29:53.846Z,19.70
2019-04-29T08:30:52.841Z,19.30
2019-04-29T08:31:57.305Z,22.40
2019-04-29T08:32:53.803Z,22.20
2019-04-29T08:33:52.819Z,20.20
2019-04-29T08:34:53.613Z,19.90
2019-04-29T08:35:52.794Z,17.90
2019-04-29T08:36:52.773Z,21.50
2019-04-29T08:37:52.765Z,18.50
2019-04-29T08:38:52.756Z,16.00
2019-04-29T08:40:08.473Z,21.50
2019-04-29T08:40:53.748Z,19.10
2019-04-29T08:41:52.719Z,16.30
2019-04-29T08:42:52.704Z,18.00
2019-04-29T08:43:57.766Z,16.40
2019-04-29T08:44:54.792Z,19.20
2019-04-29T08:45:53.721Z,18.50
2019-04-29T08:46:52.906Z,16.00
2019-04-29T08:47:52.652Z,16.50
2019-04-29T08:48:52.649Z,20.00
2019-04-29T08:49:52.652Z,20.60
2019-04-29T08:50:52.644Z,17.50
2019-04-29T08:51:52.617Z,17.70
2019-04-29T08:52:52.585Z,23.10
2019-04-29T08:53:52.575Z,20.30
2019-04-29T08:54:55.478Z,19.50
2019-04-29T08:55:52.596Z,21.50
2019-04-29T08:57:02.789Z,17.10
2019-04-29T08:57:53.553Z,23.80
2019-04-29T08:58:52.536Z,16.90
2019-04-29T08:59:52.514Z,17.70
2019-04-29T09:00:55.707Z,16.80
2019-04-29T09:01:52.498Z,20.80
2019-04-29T09:02:52.484Z,19.60
2019-04-29T09:03:53.632Z,20.90
2019-04-29T09:04:54.077Z,20.40
2019-04-29T09:06:05.071Z,21.40
2019-04-29T09:06:53.454Z,19.70
2019-04-29T09:07:56.778Z,17.80
2019-04-29T09:08:55.088Z,21.90
2019-04-29T09:09:56.290Z,24.10
2019-04-29T09:10:53.437Z,19.30
2019-04-29T09:11:52.404Z,20.40
2019-04-29T09:12:52.406Z,21.40
2019-04-29T09:13:52.386Z,18.80
2019-04-29T09:14:52.396Z,18.10
2019-04-29T09:15:52.358Z,20.60
2019-04-29T09:16:52.376Z,16.50
2019-04-29T09:17:52.321Z,18.40
2019-04-29T09:18:52.300Z,16.30
2019-04-29T09:19:52.322Z,20.50
2019-04-29T09:20:52.296Z,19.50
2019-04-29T09:21:52.283Z,18.20
2019-04-29T09:22:52.268Z,19.80
2019-04-29T09:23:52.266Z,18.40
2019-04-29T09:24:52.276Z,19.80
2019-04-29T09:26:02.593Z,22.60
2019-04-29T09:26:53.218Z,23.60
2019-04-29T09:27:52.238Z,19.50
2019-04-29T09:28:52.207Z,17.90
2019-04-29T09:29:54.299Z,18.50
2019-04-29T09:30:53.192Z,22.70
2019-04-29T09:31:52.166Z,19.00
2019-04-29T09:32:52.167Z,17.70
2019-04-29T09:33:59.689Z,19.30
2019-04-29T09:34:55.501Z,18.30
2019-04-29T09:35:53.141Z,19.90
2019-04-29T09:36:52.100Z,19.70
2019-04-29T09:37:53.872Z,22.40
2019-04-29T09:38:53.081Z,19.20
2019-04-29T09:39:52.072Z,19.70
2019-04-29T09:40:54.513Z,18.90
2019-04-29T09:41:53.051Z,18.20
2019-04-29T09:42:52.041Z,20.10
2019-04-29T09:43:52.052Z,18.10
2019-04-29T09:44:52.022Z,19.70
2019-04-29T09:45:53.918Z,19.20
2019-04-29T09:46:52.984Z,18.60
2019-04-29T09:47:51.978Z,23.30
2019-04-29T09:48:52.024Z,18.40
2019-04-29T09:49:51.970Z,18.70
2019-04-29T09:50:51.942Z,19.50
2019-04-29T09:51:51.931Z,16.60
2019-04-29T09:52:51.922Z,21.80
2019-04-29T09:53:51.939Z,18.10
2019-04-29T09:54:51.919Z,18.50
2019-04-29T09:55:51.903Z,17.60
2019-04-29T09:56:51.902Z,18.70
2019-04-29T09:57:51.875Z,17.20
2019-04-29T09:58:51.854Z,18.80
2019-04-29T09:59:51.845Z,21.20
2019-04-29T10:00:51.838Z,17.80
2019-04-29T10:01:54.993Z,20.60
2019-04-29T10:02:51.820Z,16.30
2019-04-29T10:03:51.812Z,17.50
2019-04-29T10:04:56.894Z,19.60
2019-04-29T10:05:52.775Z,18.80
2019-04-29T10:06:51.791Z,18.30
2019-04-29T10:07:51.763Z,17.10
2019-04-29T10:08:51.745Z,18.60
2019-04-29T10:09:57.555Z,20.50
2019-04-29T10:10:52.726Z,21.40
2019-04-29T10:11:51.727Z,19.20
2019-04-29T10:12:53.889Z,22.40
2019-04-29T10:13:51.704Z,19.30
2019-04-29T10:14:51.684Z,16.80
2019-04-29T10:15:51.669Z,17.60
2019-04-29T10:16:51.689Z,16.80
2019-04-29T10:17:55.482Z,17.20
2019-04-29T10:18:51.633Z,20.30
2019-04-29T10:19:51.623Z,17.00
2019-04-29T10:20:51.624Z,19.60
2019-04-29T10:21:51.632Z,16.60
2019-04-29T10:22:53.706Z,20.60
2019-04-29T10:23:51.579Z,20.10
2019-04-29T10:24:51.580Z,23.70
2019-04-29T10:25:51.557Z,18.80
2019-04-29T10:26:51.552Z,20.30
2019-04-29T10:27:51.572Z,20.30
2019-04-29T10:28:51.525Z,19.90
2019-04-29T10:29:55.355Z,18.40
2019-04-29T10:30:52.502Z,19.80
2019-04-29T10:31:51.482Z,18.10
2019-04-29T10:32:51.526Z,21.10
2019-04-29T10:33:54.819Z,18.10
2019-04-29T10:34:51.468Z,20.50
2019-04-29T10:35:51.460Z,18.60
2019-04-29T10:36:52.570Z,19.80
2019-04-29T10:37:51.443Z,19.40
2019-04-29T10:38:51.430Z,24.40
2019-04-29T10:39:51.473Z,19.70
2019-04-29T10:40:51.396Z,24.10
2019-04-29T10:41:51.381Z,24.20
2019-04-29T10:42:51.376Z,22.90
2019-04-29T10:43:53.555Z,25.00
2019-04-29T10:44:51.358Z,33.00
2019-04-29T10:45:51.343Z,28.80
2019-04-29T10:46:51.338Z,21.90
2019-04-29T10:47:51.347Z,25.80
2019-04-29T10:48:51.298Z,22.60
2019-04-29T10:49:51.325Z,22.10
2019-04-29T10:50:51.987Z,22.90
2019-04-29T10:51:51.268Z,21.90
2019-04-29T10:52:51.288Z,30.10
2019-04-29T10:53:52.655Z,22.80
2019-04-29T10:54:55.214Z,30.60
2019-04-29T10:55:52.214Z,20.40
2019-04-29T10:56:51.219Z,24.40
2019-04-29T10:57:51.498Z,21.30
2019-04-29T10:58:51.217Z,21.70
2019-04-29T10:59:51.221Z,25.00
2019-04-29T11:00:52.746Z,21.30
2019-04-29T11:02:00.991Z,20.80
2019-04-29T11:02:52.139Z,20.20
2019-04-29T11:03:51.152Z,22.20
2019-04-29T11:04:51.135Z,20.90
2019-04-29T11:06:00.434Z,21.50
2019-04-29T11:06:52.112Z,22.30
2019-04-29T11:07:51.096Z,21.20
2019-04-29T11:08:51.105Z,18.80
2019-04-29T11:09:52.536Z,21.30
2019-04-29T11:10:51.061Z,25.00
2019-04-29T11:11:51.043Z,21.10
2019-04-29T11:12:51.037Z,18.70
2019-04-29T11:13:51.055Z,18.50
2019-04-29T11:14:51.006Z,26.40
2019-04-29T11:15:51.312Z,21.60
2019-04-29T11:16:50.998Z,20.00
2019-04-29T11:17:58.842Z,19.00
2019-04-29T11:18:55.036Z,19.90
2019-04-29T11:19:51.970Z,18.60
2019-04-29T11:20:53.801Z,20.70
2019-04-29T11:21:50.947Z,19.20
2019-04-29T11:22:50.923Z,17.10
2019-04-29T11:23:54.718Z,19.40
2019-04-29T11:24:51.930Z,21.30
2019-04-29T11:25:51.549Z,18.40
2019-04-29T11:26:50.872Z,18.10
2019-04-29T11:27:50.868Z,19.60
2019-04-29T11:28:52.250Z,17.20
2019-04-29T11:29:50.875Z,18.40
2019-04-29T11:30:50.864Z,17.60
2019-04-29T11:31:54.043Z,18.60
2019-04-29T11:32:50.823Z,15.20
2019-04-29T11:33:50.811Z,18.20
2019-04-29T11:34:53.406Z,18.40
2019-04-29T11:35:50.799Z,18.80
2019-04-29T11:36:50.783Z,18.50
2019-04-29T11:37:55.356Z,17.90
2019-04-29T11:38:51.785Z,18.30
2019-04-29T11:39:51.724Z,19.90
2019-04-29T11:40:50.730Z,21.60
2019-04-29T11:41:54.700Z,19.60
2019-04-29T11:42:51.717Z,16.10
2019-04-29T11:43:51.495Z,16.70
2019-04-29T11:44:50.701Z,17.50
2019-04-29T11:45:50.672Z,19.00
2019-04-29T11:46:50.771Z,20.60
2019-04-29T11:47:50.640Z,20.00
2019-04-29T11:48:50.643Z,18.20
2019-04-29T11:49:50.654Z,16.20
2019-04-29T11:50:54.743Z,18.30
2019-04-29T11:52:08.252Z,18.20
2019-04-29T11:52:51.611Z,14.40
2019-04-29T11:53:50.633Z,18.70
2019-04-29T11:54:50.580Z,18.90
2019-04-29T11:55:52.460Z,16.90
2019-04-29T11:56:51.570Z,24.30
2019-04-29T11:57:50.545Z,19.50
2019-04-29T11:58:50.525Z,23.00
2019-04-29T11:59:50.548Z,15.80
2019-04-29T12:00:52.127Z,19.40
2019-04-29T12:01:51.722Z,15.40
2019-04-29T12:02:50.495Z,16.00
2019-04-29T12:03:51.341Z,16.90
2019-04-29T12:04:51.460Z,21.90
2019-04-29T12:05:50.480Z,21.40
2019-04-29T12:06:51.331Z,29.90
2019-04-29T12:07:51.442Z,22.10
2019-04-29T12:08:53.396Z,20.40
2019-04-29T12:09:50.427Z,20.50
2019-04-29T12:11:06.052Z,18.20
2019-04-29T12:11:51.410Z,18.40
2019-04-29T12:12:50.468Z,16.60
2019-04-29T12:13:50.364Z,24.20
2019-04-29T12:14:50.357Z,17.30
2019-04-29T12:15:50.364Z,18.60
2019-04-29T12:16:50.343Z,24.90
2019-04-29T12:17:50.313Z,23.20
2019-04-29T12:18:50.314Z,16.80
2019-04-29T12:19:50.306Z,16.10
2019-04-29T12:20:50.294Z,21.00
2019-04-29T12:21:50.303Z,18.70
2019-04-29T12:22:50.300Z,19.30
2019-04-29T12:23:52.004Z,19.50
2019-04-29T12:24:50.250Z,16.90
2019-04-29T12:25:50.231Z,21.40
2019-04-29T12:26:50.213Z,17.80
2019-04-29T12:27:52.807Z,17.30
2019-04-29T12:28:51.230Z,15.40
2019-04-29T12:29:54.425Z,21.80
2019-04-29T12:30:51.174Z,16.90
2019-04-29T12:31:51.220Z,19.50
2019-04-29T12:32:50.160Z,20.80
2019-04-29T12:33:50.149Z,17.20
2019-04-29T12:34:50.244Z,20.30
2019-04-29T12:35:51.985Z,17.60
2019-04-29T12:36:55.779Z,15.90
2019-04-29T12:37:51.101Z,17.60
2019-04-29T12:38:51.099Z,30.80
2019-04-29T12:39:50.070Z,25.60
2019-04-29T12:40:54.621Z,18.00
2019-04-29T12:41:50.069Z,17.90
2019-04-29T12:42:50.064Z,17.20
2019-04-29T12:43:54.064Z,20.90
2019-04-29T12:44:51.016Z,18.80
2019-04-29T12:45:50.006Z,19.90
2019-04-29T12:46:50.028Z,16.40
2019-04-29T12:47:49.995Z,14.70
2019-04-29T12:48:50.018Z,16.30
2019-04-29T12:49:49.981Z,14.30
2019-04-29T12:50:55.210Z,16.10
2019-04-29T12:51:50.938Z,15.60
2019-04-29T12:52:49.967Z,18.60
2019-04-29T12:53:49.940Z,18.30
2019-04-29T12:54:49.924Z,15.30
2019-04-29T12:55:53.398Z,15.40
2019-04-29T12:56:49.874Z,20.70